Bookmark and Share
Track history (hours):
 

Jj Sky

Last reported at 2014-Apr-22 00:06 UTC. Time now 2014-Apr-24 01:53 UTC.
Position N 34°54' E 139°22'.

Length 148 m; draft 7.9 m.

Type: Ship. MMSI: 477397500.

NotesDate/timePositionNaut miles runAvg speedWind from/ knotsBaromVisibWave heightAir tempDewpointWater temp
2014-Apr-22 00:06N 34°54' E 139°22'1018.0
2014-Apr-21 23:33N 35°00' E 139°32'1717.1
2014-Apr-21 22:34N 35°12' E 139°46'1413.7
2014-Apr-21 21:34N 35°26' E 139°43'2 2.1
2014-Apr-21 20:31N 35°27' E 139°41'0 0.0
2014-Apr-21 19:31N 35°27' E 139°41'0 0.0
2014-Apr-21 18:33N 35°27' E 139°41'0 0.0
2014-Apr-21 17:33N 35°27' E 139°41'0 0.0
2014-Apr-21 16:32N 35°27' E 139°41'0 0.0
2014-Apr-21 15:32N 35°27' E 139°41'0 0.0
2014-Apr-21 14:31N 35°27' E 139°41'1 0.8
2014-Apr-21 13:33N 35°28' E 139°42'8 8.3
2014-Apr-21 12:33N 35°34' E 139°50'3 3.2
2014-Apr-21 11:29N 35°36' E 139°47'0 0.0
2014-Apr-21 10:29N 35°36' E 139°47'0 0.0
2014-Apr-21 09:22N 35°36' E 139°47'0 0.0
2014-Apr-21 08:28N 35°36' E 139°47'0 0.0
2014-Apr-21 07:33N 35°36' E 139°47'0 0.0
2014-Apr-21 06:33N 35°36' E 139°47'0 0.0
2014-Apr-21 05:20N 35°36' E 139°47'0 0.0
2014-Apr-21 04:32N 35°36' E 139°47'0 0.1
2014-Apr-21 03:32N 35°36' E 139°47'0 0.1
2014-Apr-21 02:13N 35°36' E 139°47'0 0.0
2014-Apr-21 01:25N 35°36' E 139°47'0 0.0
2014-Apr-21 00:30N 35°36' E 139°47'0 0.0
2014-Apr-20 23:30N 35°36' E 139°47'7 7.9
2014-Apr-20 22:34N 35°30' E 139°52'1413.5
2014-Apr-20 21:33N 35°18' E 139°45'1414.2
2014-Apr-20 20:33N 35°04' E 139°44'1817.5
2014-Apr-20 19:32N 34°53' E 139°26'  
2014-Apr-14 22:34N 35°00' E 139°32'1616.3
2014-Apr-14 21:34N 35°11' E 139°46'1313.4
2014-Apr-14 20:34N 35°24' E 139°43'3 3.2
2014-Apr-14 19:31N 35°27' E 139°41'0 0.0
2014-Apr-14 18:33N 35°27' E 139°41'0 0.0
2014-Apr-14 17:33N 35°27' E 139°41'0 0.0
2014-Apr-14 16:33N 35°27' E 139°41'0 0.1
2014-Apr-14 15:32N 35°27' E 139°41'0 0.1
2014-Apr-14 14:32N 35°27' E 139°41'0 0.0
2014-Apr-14 13:31N 35°27' E 139°41'9 4.4
2014-Apr-14 11:33N 35°31' E 139°51'7 6.2
2014-Apr-14 10:30N 35°36' E 139°47'0 0.0
2014-Apr-14 08:29N 35°36' E 139°47'0 0.0
2014-Apr-13 22:27N 35°36' E 139°47'6 6.8
2014-Apr-13 21:33N 35°32' E 139°52'10 9.6
2014-Apr-13 20:33N 35°23' E 139°46'1212.2
2014-Apr-13 19:33N 35°11' E 139°47'1716.6
2014-Apr-13 18:33N 34°58' E 139°34'  

Dump ship's entire track history

sailing weather and tide predictions

Jj Sky — VRJA6 — position and weather